Judi M. — WCX8376 — position and weather

sailwx.info

Track history (hours):
 
Tides and Currents Weather Stations Pressure Air Temp Water Temp Dewpoint Dewpoint Depression Visibility Wind Speed Wind Dir Waves Ship Positions

Judi M.

Owner: MANKE TUG & BARGE CO INC, SHELTON, WA. More information available from US FCC via Universal Licensing System and Coast Guard Vessel Documentation Center.

Last reported at 2016-Jun-25 11:33 UTC. Time now 2016-Jun-28 11:37 UTC.
Position N 47°34' W 122°22'.

Length 29 m; draft 4 m.

Type: Tow > 200 m length. MMSI: 366740920.

Date/timePositionNaut miles runAvg speedWind from/ knotsBaromVisibWave heightAir tempDewpointWater temp
2016-Jun-25 11:33N 47°34' W 122°22'2 1.6
2016-Jun-25 10:33N 47°36' W 122°22'4 4.0
2016-Jun-25 09:33N 47°38' W 122°27'5 4.7
2016-Jun-25 08:33N 47°43' W 122°28'5 5.1
2016-Jun-25 07:33N 47°48' W 122°28'5 5.3
2016-Jun-25 06:33N 47°53' W 122°29'5 4.7
2016-Jun-25 05:33N 47°57' W 122°34'6 5.4
2016-Jun-25 04:30N 48°02' W 122°38'6 0.3
2016-Jun-24 11:07N 48°06' W 122°44'3 5.5
2016-Jun-24 10:32N 48°06' W 122°39'8 8.1
2016-Jun-24 09:33N 47°59' W 122°35'7 7.5
2016-Jun-24 08:33N 47°53' W 122°28'8 7.9
2016-Jun-24 07:33N 47°45' W 122°25'7 7.2
2016-Jun-24 06:33N 47°38' W 122°26'5 0.1
2016-Jun-22 11:06N 47°34' W 122°22'0 0.6
2016-Jun-22 10:33N 47°35' W 122°22'3 3.1
2016-Jun-22 09:33N 47°37' W 122°25'5 5.2
2016-Jun-22 08:33N 47°42' W 122°28'6 6.0
2016-Jun-22 07:33N 47°48' W 122°28'6 5.5
2016-Jun-22 06:33N 47°53' W 122°30'4 4.3
2016-Jun-22 05:32N 47°56' W 122°34'4 4.3
2016-Jun-22 04:33N 47°60' W 122°37'8 3.8
2016-Jun-22 02:32N 48°06' W 122°43'3 0.2
2016-Jun-21 10:11N 48°07' W 122°40'5 7.2
2016-Jun-21 09:33N 48°03' W 122°38'7 7.3
2016-Jun-21 08:33N 47°57' W 122°32'8 7.5
2016-Jun-21 07:33N 47°50' W 122°27'14 6.8
2016-Jun-21 05:33N 47°37' W 122°23'  
2016-Jun-15 11:33N 47°34' W 122°22'  
Track history (hours):
 
Tides and Currents Weather Stations Pressure Air Temp Water Temp Dewpoint Dewpoint Depression Visibility Wind Speed Wind Dir Waves Ship Positions

Judi M.

Owner: MANKE TUG & BARGE CO INC, SHELTON, WA. More information available from US FCC via Universal Licensing System and Coast Guard Vessel Documentation Center.

Last reported at 2016-Jun-25 11:33 UTC. Time now 2016-Jun-28 11:37 UTC.
Position N 47°34' W 122°22'.

Length 29 m; draft 4 m.

Type: Tow > 200 m length. MMSI: 366740920.

Date/timePositionNaut miles runAvg speedWind from/ knotsBaromVisibWave heightAir tempDewpointWater temp
2016-Jun-25 11:33N 47°34' W 122°22'2 1.6
2016-Jun-25 10:33N 47°36' W 122°22'4 4.0
2016-Jun-25 09:33N 47°38' W 122°27'5 4.7
2016-Jun-25 08:33N 47°43' W 122°28'5 5.1
2016-Jun-25 07:33N 47°48' W 122°28'5 5.3
2016-Jun-25 06:33N 47°53' W 122°29'5 4.7
2016-Jun-25 05:33N 47°57' W 122°34'6 5.4
2016-Jun-25 04:30N 48°02' W 122°38'6 0.3
2016-Jun-24 11:07N 48°06' W 122°44'3 5.5
2016-Jun-24 10:32N 48°06' W 122°39'8 8.1
2016-Jun-24 09:33N 47°59' W 122°35'7 7.5
2016-Jun-24 08:33N 47°53' W 122°28'8 7.9
2016-Jun-24 07:33N 47°45' W 122°25'7 7.2
2016-Jun-24 06:33N 47°38' W 122°26'5 0.1
2016-Jun-22 11:06N 47°34' W 122°22'0 0.6
2016-Jun-22 10:33N 47°35' W 122°22'3 3.1
2016-Jun-22 09:33N 47°37' W 122°25'5 5.2
2016-Jun-22 08:33N 47°42' W 122°28'6 6.0
2016-Jun-22 07:33N 47°48' W 122°28'6 5.5
2016-Jun-22 06:33N 47°53' W 122°30'4 4.3
2016-Jun-22 05:32N 47°56' W 122°34'4 4.3
2016-Jun-22 04:33N 47°60' W 122°37'8 3.8
2016-Jun-22 02:32N 48°06' W 122°43'3 0.2
2016-Jun-21 10:11N 48°07' W 122°40'5 7.2
2016-Jun-21 09:33N 48°03' W 122°38'7 7.3
2016-Jun-21 08:33N 47°57' W 122°32'8 7.5
2016-Jun-21 07:33N 47°50' W 122°27'14 6.8
2016-Jun-21 05:33N 47°37' W 122°23'  
2016-Jun-15 11:33N 47°34' W 122°22'  

Dump ship's entire track history